Relevés horaires Bierset (Belgique)


Relevés horaires à Bierset - Lundi 05 Nov. 2018
Heure UTC1 Température [°C] Vent [km/h] Hum. [%] Pres.4 [hPa] Visi. [Km] Nébu. [octa] Préc.5 [mm] Cond.
2m. Res. Ros. Dir.2 Vit. Moy. Raf.3
23:00 9.9 8.3 6.9 SSE 11.1 13.0 20.4 82 1007.1(0.4/3h) 15 3/8 -- --
22:00 9.9 8.6 6.9 SSE 9.3 11.1 22.2 82 1007(0.4/3h) 15 3/8 -- --
21:00 10.5 9.1 6.8 SSE 11.1 13.0 20.4 78 1006.9(0.4/3h) 15 3/8 -- --
20:00 11.0 9.7 6.7 SSE 11.1 13.0 14.8 75 1006.6(-0.2/3h) 15 5/8 -- --
19:00 11.0 9.7 7.0 SSE 11.1 11.1 18.5 76 1006.5(-0.1/3h) 15 5/8 -- --
18:00 10.9 9.8 7.6 SSE 9.3 9.3 18.5 80 1006.5(-0.5/3h) 15 7/8 0/12h
--
17:00 11.2 11 8.0 SSE 5.6 5.6 9.3 81 1006.8(-0.5/3h) 15 7/8 -- --
16:00 12.0 11.9 8.2 SE 5.6 5.6 13.0 78 1006.6(-0.7/3h) 20 7/8 -- --
15:00 13.0 13 8.0 S 5.6 7.4 18.5 72 1006.9(-0.8/3h) 17 6/8 -- --
14:00 13.0 12.6 8.5 SSO 7.4 7.4 13.0 74 1007.1(-0.8/3h) 15 6/8 -- --
13:00 12.9 12.5 8.6 S 7.4 7.4 18.5 75 1007.3(-0.7/3h) 16 7/8 -- --
12:00 12.8 12.8 8.2 S 5.6 9.3 18.5 74 1007.7(-0.8/3h) 22 7/8 0/6h
--
11:00 12.0 12.0 7.9 SE 3.7 5.6 13.0 76 1008(-0.6/3h) 20 6/8 -- --
10:00 11.1 10.8 7.6 S 5.6 7.4 14.8 79 1008.2(0.1/3h) 20 5/8 -- --
09:00 9.7 9.2 7.1 S 5.6 9.3 16.7 84 1008.7(0.5/3h) 12 6/8 -- --
08:00 8.2 7 6.3 SSE 7.4 9.3 14.8 88 1009(0.4/3h) 10 6/8 -- --
07:00 7.9 6.7 6.1 SSE 7.4 7.4 13.0 88 1008.5(-0.9/3h) 10 5/8 -- --
06:00 7.1 7.1 5.7 SE 3.7 7.4 13.0 91 1008.5(-1.1/3h) 9 7/8 0/12h
--
05:00 7.8 7.1 5.9 S 5.6 7.4 11.1 88 1008.7(-0.7/3h) 10 7/8 -- --
04:00 8.5 7.9 5.8 S 5.6 7.4 11.1 83 1009.4(-0.6/3h) 12 7/8 -- --
03:00 8.1 8.1 5.5 S 3.7 5.6 13.0 84 1009.5(-0.8/3h) 11 7/8 -- --
02:00 8.5 7.9 5.9 SSE 5.6 5.6 5.6 84 1009.4(-1.2/3h) 11 7/8 -- --
01:00 7.8 7.8 5.8 SE 3.7 3.7 7.4 87 1010.1(-1.3/3h) 9 7/8 -- --
00:00 6.3 6.3 5.3 NE 1.9 7.4 16.7 93 1010.6(-1.2/3h) 7 7/8 0/6h
0/24h
--

1 Coordinated Universal Time. Actuellement il est 18:00 locale et 16:00 UTC.

2 Le vent souffle depuis la direction indiquée vers la direction oposée.

3 Les rafales max. sont disponible 40 min après l'heure du relevé.

4 Pour les stations d'altitude (plus de 600m) le géopotentiel du niveau le plus proche de la pression obligatoire est indiqué.

5 Les stations disposant d'un diffuseur peuvent indiquer "trace". Cela signifie que des précipitations ont touchés le sol mais que la quantité est inférieure à 0.1 mm.

Récapitulatif de la journée
Température [°C] Vent [km/h] Ensoleillement4 [h] Precipitations totale5 [mm] Pression [Hpa]
Min1 Max.2 Moy.3 Max. Min Max.
6.1 13.2 8.2 22.2 0 h 0 min 0 1006.5 1010.6

1 Température minimale relevée entre 18:00 UTC la veille et 18:00 UTC le jour donné.

2 Température maximale relevée entre 06:00 UTC le jour donné et 06:00 UTC le lendemain.

3 Vent moyen de la journée basé sur les relevés horaires.

4 Ensoleillement en heures relevé entre 06:00 UTC la veille et 06:00 UTC le jour donné.

5 Précipitations totales tombées entre 06:00 UTC la jour donné et 06:00 UTC le lendemain.

Graphiques horaires